Time;durP1;ratioP1;P1;durP2;ratioP2;P2;SDS_P1;SDS_P2;PMS_P1;PMS_P2;Temp;Humidity;BMP_temperature;BMP_pressure;BME280_temperature;BME280_humidity;BME280_pressure;Samples;Min_cycle;Max_cycle;Signal;HPM_P1;HPM_P2
2021/01/29 00:01:40;;;;;;;23.42;6.10;;;;;;;18.54;43.19;99082.50;5075107;28;20024;-75
2021/01/29 00:04:05;;;;;;;29.30;6.13;;;;;;;18.47;43.30;99091.63;5074410;28;20029;-76
2021/01/29 00:06:31;;;;;;;25.25;6.90;;;;;;;18.51;42.97;99083.31;5074588;28;20032;-75
2021/01/29 00:08:57;;;;;;;26.33;6.43;;;;;;;18.44;43.23;99080.59;5074772;28;20777;-75
2021/01/29 00:11:22;;;;;;;23.55;6.35;;;;;;;18.38;43.14;99088.56;5074703;28;20032;-75
2021/01/29 00:13:48;;;;;;;31.63;6.72;;;;;;;18.21;43.50;99089.44;5074634;28;20111;-75
2021/01/29 00:16:14;;;;;;;21.92;6.03;;;;;;;18.25;43.21;99081.91;5074371;28;20051;-78
2021/01/29 00:18:39;;;;;;;26.48;6.22;;;;;;;18.23;43.13;99082.31;5073330;28;20401;-75
2021/01/29 00:21:05;;;;;;;23.67;5.93;;;;;;;18.21;43.10;99089.44;5071456;28;20039;-75
2021/01/29 00:23:31;;;;;;;21.05;6.05;;;;;;;18.23;42.89;99085.09;5072677;28;20100;-76
2021/01/29 00:25:56;;;;;;;27.13;5.63;;;;;;;18.16;43.20;99087.09;5072617;28;20025;-76
2021/01/29 00:28:23;;;;;;;29.15;6.95;;;;;;;18.20;43.18;99087.84;5073222;28;20024;-77
2021/01/29 00:30:52;;;;;;;28.38;7.07;;;;;;;18.23;43.25;99085.09;5073575;28;20664;-75
2021/01/29 00:33:21;;;;;;;30.33;6.95;;;;;;;18.28;43.01;99084.63;5074025;28;20426;-75
2021/01/29 00:35:47;;;;;;;23.25;6.72;;;;;;;18.32;43.09;99079.09;5072882;28;20044;-75
2021/01/29 00:38:13;;;;;;;21.20;6.32;;;;;;;18.37;43.06;99072.38;5074254;28;20418;-75
2021/01/29 00:40:39;;;;;;;27.45;6.70;;;;;;;18.35;43.24;99072.75;5073850;28;20090;-75
2021/01/29 00:43:05;;;;;;;24.90;6.40;;;;;;;18.38;42.97;99071.97;5074252;28;20020;-86
2021/01/29 00:45:33;;;;;;;20.52;6.25;;;;;;;18.48;42.94;99073.84;5074175;28;20028;-75
2021/01/29 00:47:59;;;;;;;28.13;8.25;;;;;;;18.51;43.25;99075.00;5074301;28;20028;-75
2021/01/29 00:50:28;;;;;;;21.98;6.78;;;;;;;18.58;42.75;99058.34;5074178;28;20024;-76
2021/01/29 00:52:53;;;;;;;21.48;5.82;;;;;;;18.61;43.16;99068.63;5073911;28;20075;-75
2021/01/29 00:55:22;;;;;;;21.13;7.18;;;;;;;18.48;43.30;99054.50;5074001;28;20052;-76
2021/01/29 00:57:47;;;;;;;27.55;6.90;;;;;;;18.59;43.24;99051.66;5074049;28;20032;-86
2021/01/29 01:00:15;;;;;;;21.90;6.45;;;;;;;18.53;43.33;99042.22;5073931;28;20043;-76
2021/01/29 01:02:40;;;;;;;20.00;6.07;;;;;;;18.42;43.38;99033.22;5073867;28;20070;-82
2021/01/29 01:05:07;;;;;;;22.55;7.43;;;;;;;18.40;43.40;99035.59;5074121;28;20075;-76
2021/01/29 01:07:33;;;;;;;26.13;6.22;;;;;;;18.45;43.30;99038.72;5073616;28;20025;-76
2021/01/29 01:09:59;;;;;;;26.05;6.18;;;;;;;18.47;43.19;99030.00;5073754;28;20024;-75
2021/01/29 01:12:25;;;;;;;35.22;8.35;;;;;;;18.43;43.18;99029.25;5073691;28;20377;-75
2021/01/29 01:14:51;;;;;;;23.63;6.30;;;;;;;18.38;43.29;99024.16;5073576;28;20057;-76
2021/01/29 01:17:17;;;;;;;27.48;6.78;;;;;;;18.34;43.44;99017.88;5073504;28;20198;-75
2021/01/29 01:19:44;;;;;;;26.98;6.22;;;;;;;18.34;43.31;99017.88;5072611;28;20123;-75
2021/01/29 01:22:09;;;;;;;21.60;5.40;;;;;;;18.28;43.47;99017.50;5072521;28;20028;-75
2021/01/29 01:24:41;;;;;;;21.55;5.70;;;;;;;18.29;43.44;99011.59;5073620;28;20032;-75
2021/01/29 01:27:15;;;;;;;28.27;6.35;;;;;;;18.25;43.59;99002.53;5073375;28;20040;-75
2021/01/29 01:29:41;;;;;;;26.13;5.97;;;;;;;18.13;43.97;99007.75;5073195;28;20021;-75
2021/01/29 01:32:07;;;;;;;28.70;6.22;;;;;;;18.17;43.64;99006.53;5073141;28;20028;-75
2021/01/29 01:34:33;;;;;;;22.33;6.10;;;;;;;18.14;43.81;99018.41;5073169;28;20078;-76
2021/01/29 01:37:01;;;;;;;26.48;5.75;;;;;;;18.26;43.20;99006.84;5072957;28;20039;-75
2021/01/29 01:39:27;;;;;;;27.85;5.82;;;;;;;18.12;43.55;99009.72;5071838;28;20399;-75
2021/01/29 01:41:54;;;;;;;21.88;6.82;;;;;;;18.13;43.54;99016.81;5072916;28;20028;-75
2021/01/29 01:44:38;;;;;;;30.15;6.95;;;;;;;18.14;43.59;99023.94;5072793;28;20055;-75
2021/01/29 01:47:23;;;;;;;25.00;8.05;;;;;;;18.00;43.60;99016.53;5071587;28;20506;-75
2021/01/29 01:49:53;;;;;;;32.65;7.18;;;;;;;18.04;43.59;99024.78;5072686;28;20154;-75
2021/01/29 01:52:25;;;;;;;27.15;6.30;;;;;;;17.95;43.94;99021.69;5072122;28;20040;-75
2021/01/29 01:55:19;;;;;;;25.23;5.35;;;;;;;18.09;43.41;99029.88;5071606;28;20044;-75
2021/01/29 01:57:49;;;;;;;21.48;5.70;;;;;;;18.04;43.16;99019.25;5072710;28;20036;-76
2021/01/29 02:00:19;;;;;;;30.58;7.97;;;;;;;18.03;43.46;99026.75;5072469;28;20036;-75
2021/01/29 02:02:51;;;;;;;24.50;5.85;;;;;;;17.96;43.50;99017.72;5072637;28;20078;-75
2021/01/29 02:05:23;;;;;;;29.88;7.45;;;;;;;18.00;43.32;99021.28;5071444;28;20380;-75
2021/01/29 02:07:58;;;;;;;28.65;7.28;;;;;;;18.03;43.44;99023.22;5072492;28;20101;-75
2021/01/29 02:10:26;;;;;;;26.58;6.82;;;;;;;18.03;43.32;99029.53;5072481;28;20462;-75
2021/01/29 02:12:52;;;;;;;19.73;5.95;;;;;;;18.05;43.13;99031.88;5071125;28;20036;-76
2021/01/29 02:15:25;;;;;;;26.30;6.97;;;;;;;17.98;42.84;99018.09;5072123;28;20538;-76
2021/01/29 02:17:57;;;;;;;19.73;5.50;;;;;;;17.98;43.29;99016.13;5072197;28;20131;-75
2021/01/29 02:20:34;;;;;;;18.95;5.78;;;;;;;17.92;43.38;99023.28;5072476;28;20078;-75
2021/01/29 02:23:39;;;;;;;25.15;6.75;;;;;;;17.94;42.98;99023.66;5070967;28;20055;-76
2021/01/29 02:26:42;;;;;;;26.58;6.30;;;;;;;17.95;43.28;99032.75;5072129;28;20059;-76
2021/01/29 02:29:13;;;;;;;19.98;5.07;;;;;;;17.93;43.30;99030.38;5072179;28;20039;-76
2021/01/29 02:32:32;;;;;;;25.90;5.90;;;;;;;17.71;43.52;99038.00;5070878;28;20177;-75
2021/01/29 02:35:30;;;;;;;24.05;6.20;;;;;;;17.72;43.38;99038.78;5071060;28;20024;-75
2021/01/29 02:38:33;;;;;;;19.88;5.38;;;;;;;17.70;43.53;99043.91;5071908;28;20042;-75
2021/01/29 02:41:39;;;;;;;24.05;5.50;;;;;;;17.75;43.37;99041.50;5071874;28;20085;-75
2021/01/29 02:44:39;;;;;;;21.70;5.35;;;;;;;17.77;43.39;99038.38;5070794;28;20048;-85
2021/01/29 02:47:44;;;;;;;21.40;5.40;;;;;;;17.75;43.53;99036.00;5070734;28;20032;-75
2021/01/29 02:50:27;;;;;;;19.45;4.47;;;;;;;17.74;43.34;99034.41;5069727;28;20039;-75
2021/01/29 02:53:16;;;;;;;19.83;6.82;;;;;;;17.78;43.28;99036.41;5071779;28;20153;-75
2021/01/29 02:56:25;;;;;;;22.83;6.35;;;;;;;17.77;43.26;99027.31;5070547;28;20029;-75
2021/01/29 02:58:59;;;;;;;25.08;5.47;;;;;;;17.77;42.98;99026.53;5073241;28;20128;-77
2021/01/29 03:01:43;;;;;;;19.92;4.97;;;;;;;17.64;43.48;99023.41;5071555;28;20078;-76
2021/01/29 03:04:22;;;;;;;23.38;7.15;;;;;;;17.66;43.35;99026.53;5070515;28;20124;-77
2021/01/29 03:06:57;;;;;;;21.35;5.78;;;;;;;17.66;43.18;99035.63;5071629;28;20025;-75
2021/01/29 03:09:40;;;;;;;20.20;4.60;;;;;;;17.67;43.18;99050.22;5070222;28;20028;-75
2021/01/29 03:12:13;;;;;;;23.02;5.93;;;;;;;17.64;43.09;99048.25;5069929;28;20028;-75
2021/01/29 03:14:45;;;;;;;30.70;6.35;;;;;;;17.61;43.24;99052.63;5071657;28;20683;-75
2021/01/29 03:17:20;;;;;;;20.42;5.47;;;;;;;17.61;43.17;99054.59;5070317;28;20418;-75
2021/01/29 03:19:59;;;;;;;16.17;5.30;;;;;;;17.61;43.18;99049.06;5071778;28;20036;-75
2021/01/29 03:22:34;;;;;;;23.23;5.07;;;;;;;17.60;43.39;99047.47;5071790;28;20532;-75
2021/01/29 03:25:06;;;;;;;17.88;5.07;;;;;;;17.58;43.27;99050.63;5071607;28;20040;-75
2021/01/29 03:27:40;;;;;;;23.02;5.38;;;;;;;17.54;42.95;99047.13;5069615;28;20064;-85
2021/01/29 03:30:16;;;;;;;20.77;5.20;;;;;;;17.47;43.13;99055.44;5051446;28;20384;-75
2021/01/29 03:32:46;;;;;;;17.95;5.13;;;;;;;17.42;43.20;99042.81;5070814;28;20035;-75
2021/01/29 03:35:16;;;;;;;26.63;6.60;;;;;;;17.31;43.42;99039.31;5070234;28;20114;-75
2021/01/29 03:37:45;;;;;;;19.20;5.55;;;;;;;17.31;43.47;99041.28;5070422;28;20067;-75
2021/01/29 03:40:11;;;;;;;19.75;4.65;;;;;;;17.23;43.31;99036.94;5071247;28;20032;-75
2021/01/29 03:42:55;;;;;;;13.82;4.47;;;;;;;17.26;43.39;99041.69;5069720;28;20021;-75
2021/01/29 03:45:45;;;;;;;18.85;5.13;;;;;;;17.11;43.31;99041.72;5070585;28;20556;-76
2021/01/29 03:48:29;;;;;;;17.35;4.03;;;;;;;16.88;44.05;99050.44;5069996;28;20522;-75
2021/01/29 03:51:04;;;;;;;20.45;5.90;;;;;;;17.05;43.60;99046.06;5071391;28;20029;-76
2021/01/29 03:53:49;;;;;;;22.98;6.30;;;;;;;16.92;43.76;99050.41;5071345;28;20116;-75
2021/01/29 03:56:53;;;;;;;29.58;6.95;;;;;;;16.87;44.08;99059.13;5071329;28;20028;-75
2021/01/29 03:59:28;;;;;;;23.38;5.15;;;;;;;16.81;44.12;99057.94;5071338;28;20056;-75
2021/01/29 04:02:06;;;;;;;20.80;4.88;;;;;;;16.91;44.07;99059.88;5071206;28;20025;-75
2021/01/29 04:04:45;;;;;;;21.05;5.35;;;;;;;16.71;44.23;99064.25;5069841;28;20094;-75
2021/01/29 04:07:20;;;;;;;26.85;5.63;;;;;;;16.73;43.65;99062.66;5071096;28;20024;-75
2021/01/29 04:09:54;;;;;;;26.48;5.03;;;;;;;16.74;44.04;99060.69;5070109;28;20025;-75
2021/01/29 04:12:43;;;;;;;22.60;6.43;;;;;;;16.74;43.92;99066.22;5069843;28;20135;-75
2021/01/29 04:15:18;;;;;;;15.43;4.85;;;;;;;16.71;44.15;99067.00;5072162;28;20403;-86
2021/01/29 04:18:25;;;;;;;24.45;5.72;;;;;;;16.60;43.98;99067.75;5074702;28;20109;-75
2021/01/29 04:21:00;;;;;;;21.92;5.55;;;;;;;16.67;44.06;99068.94;5073324;28;20498;-76
2021/01/29 04:23:53;;;;;;;20.58;5.07;;;;;;;16.60;44.10;99078.78;5072937;28;20024;-75
2021/01/29 04:27:05;;;;;;;16.60;5.75;;;;;;;16.36;45.07;99080.34;5074583;28;20024;-86
2021/01/29 04:29:37;;;;;;;21.55;5.18;;;;;;;16.41;44.86;99081.94;5072040;28;20085;-75
2021/01/29 04:32:09;;;;;;;21.50;4.97;;;;;;;16.50;44.28;99082.31;5072909;28;20642;-75
2021/01/29 04:34:39;;;;;;;25.60;5.10;;;;;;;16.57;44.26;99084.31;5073089;28;20505;-75
2021/01/29 04:37:07;;;;;;;;;;;;;;;16.47;44.61;99091.38;5107375;28;20467;-75
2021/01/29 04:39:37;;;;;;;19.17;4.65;;;;;;;16.52;44.37;99092.97;5074087;28;20336;-75
2021/01/29 04:42:05;;;;;;;23.35;5.00;;;;;;;16.50;44.28;99096.13;5074187;28;20032;-75
2021/01/29 04:44:59;;;;;;;18.38;5.63;;;;;;;16.45;44.39;99104.75;5074241;28;20043;-75
2021/01/29 04:47:30;;;;;;;24.15;6.28;;;;;;;16.35;44.67;99100.03;5072928;28;20021;-85
2021/01/29 04:50:12;;;;;;;21.02;4.97;;;;;;;16.33;44.58;99105.16;5072923;28;20029;-82
2021/01/29 04:53:05;;;;;;;19.75;5.70;;;;;;;16.21;44.87;99116.53;5072680;28;20025;-75
2021/01/29 04:56:08;;;;;;;18.15;4.82;;;;;;;16.27;44.79;99121.28;5072470;28;20024;-75
2021/01/29 04:58:37;;;;;;;19.58;5.60;;;;;;;16.21;44.85;99128.34;5073792;28;20031;-76
2021/01/29 05:01:22;;;;;;;24.65;6.15;;;;;;;16.24;44.75;99138.56;5072615;28;20020;-84
2021/01/29 05:04:30;;;;;;;24.48;6.40;;;;;;;16.20;44.78;99146.06;5073829;28;20024;-74
2021/01/29 05:07:18;;;;;;;27.27;5.40;;;;;;;16.19;44.56;99143.69;5072331;28;20052;-75
2021/01/29 05:10:31;;;;;;;21.55;5.28;;;;;;;16.00;45.39;99147.56;5073675;28;20032;-86
2021/01/29 05:13:28;;;;;;;19.30;5.63;;;;;;;16.14;45.24;99152.34;5063637;28;20044;-75
2021/01/29 05:16:09;;;;;;;24.15;5.32;;;;;;;16.21;44.85;99166.91;5071408;28;20044;-75
2021/01/29 05:19:17;;;;;;;21.90;5.25;;;;;;;16.22;44.88;99165.75;5072193;28;20524;-75
2021/01/29 05:21:55;;;;;;;25.02;4.90;;;;;;;16.21;44.99;99168.88;5073314;28;20035;-75
2021/01/29 05:24:41;;;;;;;21.25;4.95;;;;;;;16.23;45.14;99163.78;5073386;28;20453;-75
2021/01/29 05:27:30;;;;;;;25.77;5.88;;;;;;;16.17;44.98;99165.31;5072544;28;20028;-76
2021/01/29 05:30:02;;;;;;;24.80;6.72;;;;;;;16.11;44.94;99173.19;5073502;28;20029;-75
2021/01/29 05:32:40;;;;;;;21.17;4.75;;;;;;;16.08;44.92;99171.19;5073169;28;20024;-75
2021/01/29 05:35:11;;;;;;;26.05;5.50;;;;;;;15.86;45.48;99178.56;5073104;28;20036;-75
2021/01/29 05:38:03;;;;;;;20.60;5.63;;;;;;;15.94;45.12;99188.44;5073014;28;20028;-75
2021/01/29 05:40:47;;;;;;;14.65;5.25;;;;;;;15.86;45.45;99191.56;5055063;28;20131;-75
2021/01/29 05:43:34;;;;;;;17.67;5.65;;;;;;;15.93;45.19;99194.34;5073011;28;20039;-75
2021/01/29 05:46:28;;;;;;;24.10;5.68;;;;;;;15.82;45.44;99195.09;5072991;28;20059;-77
2021/01/29 05:49:12;;;;;;;25.33;5.35;;;;;;;15.93;45.16;99194.34;5072837;28;20059;-75
2021/01/29 05:52:27;;;;;;;21.65;4.50;;;;;;;15.94;45.07;99195.94;5071515;28;20039;-75
2021/01/29 05:55:10;;;;;;;16.13;5.03;;;;;;;15.94;45.12;99196.72;5071435;28;20450;-75
2021/01/29 05:57:44;;;;;;;19.55;4.30;;;;;;;16.03;45.27;99193.63;5072625;28;20038;-75
2021/01/29 06:00:28;;;;;;;27.85;6.28;;;;;;;16.07;45.06;99197.97;5071373;28;20101;-76
2021/01/29 06:03:12;;;;;;;20.92;4.88;;;;;;;16.04;45.44;99204.25;5072748;28;20028;-75
2021/01/29 06:06:05;;;;;;;17.80;4.20;;;;;;;16.08;45.35;99207.81;5072527;28;20044;-75
2021/01/29 06:08:59;;;;;;;20.30;4.95;;;;;;;16.05;45.51;99219.59;5071113;28;20032;-75
2021/01/29 06:11:43;;;;;;;17.10;4.65;;;;;;;15.98;46.42;99225.09;5070912;28;20086;-75
2021/01/29 06:14:20;;;;;;;17.85;4.72;;;;;;;16.17;46.08;99231.44;5072105;28;20359;-75
2021/01/29 06:17:19;;;;;;;19.85;4.40;;;;;;;16.21;46.20;99224.78;5072326;28;20383;-74
2021/01/29 06:20:11;;;;;;;15.77;5.00;;;;;;;16.28;47.04;99227.56;5072241;28;20050;-74
2021/01/29 06:23:07;;;;;;;23.35;5.70;;;;;;;16.32;46.53;99222.88;5072282;28;20398;-74
2021/01/29 06:26:08;;;;;;;16.25;4.85;;;;;;;16.32;47.02;99216.56;5070787;28;20043;-75
2021/01/29 06:28:56;;;;;;;20.63;5.78;;;;;;;16.20;47.70;99217.72;5063257;28;20068;-75
2021/01/29 06:32:10;;;;;;;20.27;7.35;;;;;;;16.44;47.18;99230.00;5060882;28;20494;-75
2021/01/29 06:35:01;;;;;;;15.40;3.42;;;;;;;16.36;47.56;99228.41;5071989;28;20025;-74
2021/01/29 06:37:45;;;;;;;16.50;5.05;;;;;;;16.52;47.02;99237.13;5069609;28;20040;-75
2021/01/29 06:40:41;;;;;;;20.70;4.97;;;;;;;16.47;47.21;99247.72;5071968;28;20059;-76
2021/01/29 06:43:31;;;;;;;18.15;4.32;;;;;;;16.55;47.18;99243.81;5071013;28;20028;-85
2021/01/29 06:46:07;;;;;;;;;;;;;;;16.41;47.84;99241.81;5072492;28;20032;-74
2021/01/29 06:48:51;;;;;;;10.98;4.05;;;;;;;16.53;47.38;99238.69;5071822;28;19912;-73
2021/01/29 06:51:48;;;;;;;14.52;5.60;;;;;;;16.53;47.29;99243.41;5071836;28;20035;-75
2021/01/29 06:54:24;;;;;;;13.40;3.53;;;;;;;16.42;47.49;99235.13;5069154;28;20108;-85
2021/01/29 06:57:06;;;;;;;15.10;4.25;;;;;;;16.45;47.34;99239.06;5070596;28;20040;-74
2021/01/29 06:59:42;;;;;;;11.48;3.22;;;;;;;16.49;46.98;99239.88;5071937;28;20031;-74
2021/01/29 07:02:25;;;;;;;13.48;3.80;;;;;;;16.24;47.84;99239.75;5072524;28;20040;-74
2021/01/29 07:05:00;;;;;;;14.30;3.97;;;;;;;16.32;47.30;99249.63;5070269;28;20033;-74
2021/01/29 07:07:31;;;;;;;16.38;4.45;;;;;;;16.22;47.75;99253.13;5071377;28;20107;-77
2021/01/29 07:10:18;;;;;;;16.88;4.32;;;;;;;16.20;47.70;99241.72;5069134;28;20103;-74
2021/01/29 07:12:55;;;;;;;18.23;3.92;;;;;;;16.53;46.88;99260.75;5069850;28;20024;-75
2021/01/29 07:15:48;;;;;;;11.05;3.45;;;;;;;16.52;46.51;99259.16;5069116;28;20121;-74
2021/01/29 07:18:23;;;;;;;11.93;4.25;;;;;;;16.49;46.45;99257.19;5068794;28;20033;-75
2021/01/29 07:21:17;;;;;;;8.38;3.03;;;;;;;16.18;47.42;99261.41;5067825;28;20040;-75
2021/01/29 07:24:03;;;;;;;10.85;2.80;;;;;;;16.12;47.78;99268.44;5066710;28;20029;-76
2021/01/29 07:26:58;;;;;;;8.75;2.30;;;;;;;16.08;47.86;99282.19;5069016;28;20055;-74
2021/01/29 07:29:54;;;;;;;8.88;3.40;;;;;;;16.24;47.70;99283.84;5066931;28;20032;-76
2021/01/29 07:32:48;;;;;;;8.30;2.83;;;;;;;16.19;47.86;99301.56;5067655;28;20029;-76
2021/01/29 07:35:38;;;;;;;13.48;2.22;;;;;;;16.29;47.92;99283.50;5068167;28;20032;-75
2021/01/29 07:38:25;;;;;;;8.57;2.80;;;;;;;16.52;47.16;99283.97;5066667;28;20039;-75
2021/01/29 07:41:06;;;;;;;10.80;2.33;;;;;;;16.48;47.23;99288.72;5067590;28;20553;-74
2021/01/29 07:43:46;;;;;;;10.48;3.33;;;;;;;16.20;47.90;99305.09;5067818;28;20028;-75
2021/01/29 07:46:39;;;;;;;7.07;1.90;;;;;;;16.29;47.98;99292.53;5067938;28;20024;-74
2021/01/29 07:49:18;;;;;;;11.45;2.70;;;;;;;16.46;47.41;99304.81;5069887;28;20023;-74
2021/01/29 07:51:49;;;;;;;8.05;1.73;;;;;;;16.45;47.56;99310.72;5070638;28;20032;-75
2021/01/29 07:54:40;;;;;;;9.88;2.75;;;;;;;16.57;47.53;99310.41;5073960;28;20526;-74
2021/01/29 07:57:40;;;;;;;6.13;2.25;;;;;;;16.47;47.83;99322.16;5072047;28;20028;-74
2021/01/29 08:00:28;;;;;;;5.65;1.77;;;;;;;16.68;47.22;99313.97;5072219;28;20017;-75
2021/01/29 08:03:16;;;;;;;5.60;1.40;;;;;;;16.83;46.76;99323.91;5069162;28;20035;-75
2021/01/29 08:05:51;;;;;;;5.35;2.25;;;;;;;16.70;47.17;99327.41;5070108;28;20085;-75
2021/01/29 08:08:22;;;;;;;7.18;2.65;;;;;;;16.62;47.42;99326.56;5073571;28;20509;-75
2021/01/29 08:10:51;;;;;;;5.25;1.13;;;;;;;16.86;46.96;99333.41;5073866;28;20032;-75
2021/01/29 08:13:41;;;;;;;5.95;1.85;;;;;;;16.71;47.26;99329.81;5073705;28;20036;-74
2021/01/29 08:16:44;;;;;;;7.20;2.00;;;;;;;16.94;47.00;99337.75;5070050;28;20040;-74
2021/01/29 08:19:48;;;;;;;4.38;1.58;;;;;;;16.79;47.33;99349.94;5070970;28;20387;-75
2021/01/29 08:22:47;;;;;;;8.02;1.40;;;;;;;16.75;47.59;99351.88;5072004;28;20406;-74
2021/01/29 08:25:33;;;;;;;5.28;1.40;;;;;;;16.70;47.93;99349.47;5073601;28;20029;-74
2021/01/29 08:28:24;;;;;;;4.13;1.23;;;;;;;16.51;48.49;99361.56;5074470;28;20043;-74
2021/01/29 08:31:24;;;;;;;9.77;2.15;;;;;;;16.95;47.47;99358.66;5074377;28;20047;-75
2021/01/29 08:34:07;;;;;;;4.25;1.08;;;;;;;16.72;48.26;99356.19;5069372;28;20036;-74
2021/01/29 08:36:54;;;;;;;8.60;1.45;;;;;;;17.04;47.71;99358.28;5071800;28;20056;-75
2021/01/29 08:39:37;;;;;;;5.60;1.45;;;;;;;16.86;47.96;99363.75;5072604;28;20035;-74
2021/01/29 08:42:11;;;;;;;8.38;1.70;;;;;;;17.03;48.15;99367.75;5072761;28;20029;-74
2021/01/29 08:44:48;;;;;;;7.68;1.70;;;;;;;17.09;47.79;99349.63;5072780;28;20032;-74
2021/01/29 08:47:43;;;;;;;2.72;0.90;;;;;;;17.18;47.93;99375.66;5065403;28;20064;-74
2021/01/29 08:50:23;;;;;;;6.00;1.63;;;;;;;16.78;49.78;99381.44;5057830;28;20032;-74
2021/01/29 08:53:15;;;;;;;3.67;1.05;;;;;;;17.13;48.45;99381.56;5056763;28;20098;-76
2021/01/29 08:56:00;;;;;;;4.47;1.60;;;;;;;16.80;49.65;99379.09;5058178;28;20029;-75
2021/01/29 08:58:44;;;;;;;6.22;1.38;;;;;;;17.01;49.21;99392.97;5055643;28;20495;-74
2021/01/29 09:01:42;;;;;;;4.97;1.38;;;;;;;16.64;50.51;99402.22;5057521;28;20036;-75
2021/01/29 09:04:23;;;;;;;9.55;1.90;;;;;;;17.01;49.65;99395.72;5058762;28;20127;-79
2021/01/29 09:06:51;;;;;;;9.90;1.95;;;;;;;17.17;49.02;99398.94;5056695;28;20039;-80
2021/01/29 09:09:30;;;;;;;4.68;1.80;;;;;;;17.06;49.42;99400.84;5057020;28;20963;-75
2021/01/29 09:12:01;;;;;;;10.15;2.10;;;;;;;16.84;50.19;99408.25;5059861;28;20036;-76
2021/01/29 09:14:37;;;;;;;14.70;3.90;;;;;;;17.19;49.52;99415.88;5072438;28;20048;-75
2021/01/29 09:17:14;;;;;;;6.05;1.70;;;;;;;16.91;50.48;99422.06;5066877;28;20137;-76
2021/01/29 09:20:03;;;;;;;4.18;1.27;;;;;;;17.25;49.57;99415.53;5056715;28;20051;-82
2021/01/29 09:22:37;;;;;;;5.90;1.98;;;;;;;16.91;51.00;99413.00;5072782;28;20131;-78
2021/01/29 09:25:16;;;;;;;5.57;1.75;;;;;;;16.99;50.65;99431.19;5073594;28;20054;-78
2021/01/29 09:28:06;;;;;;;8.00;2.08;;;;;;;17.44;49.21;99442.78;5073297;28;20031;-82
2021/01/29 09:30:39;;;;;;;7.53;1.50;;;;;;;16.97;51.10;99444.56;5072924;28;20051;-79
2021/01/29 09:33:22;;;;;;;6.35;1.65;;;;;;;16.76;51.66;99450.78;5073192;28;20055;-79
2021/01/29 09:35:58;;;;;;;4.40;1.30;;;;;;;17.19;50.51;99462.81;5074204;28;20024;-84
2021/01/29 09:38:32;;;;;;;6.05;2.47;;;;;;;17.33;50.31;99453.00;5074107;28;20036;-84
2021/01/29 09:41:16;;;;;;;12.00;2.25;;;;;;;17.40;50.41;99467.63;5074630;28;20032;-84
2021/01/29 09:43:47;;;;;;;3.85;1.15;;;;;;;17.23;50.85;99473.06;5073005;28;20033;-85
2021/01/29 09:46:30;;;;;;;3.70;1.05;;;;;;;17.35;50.53;99465.22;5053101;28;20064;-84
2021/01/29 09:49:21;;;;;;;5.13;1.00;;;;;;;17.18;51.42;99471.47;5067788;28;20039;-81
2021/01/29 09:52:00;;;;;;;3.95;1.27;;;;;;;17.22;51.39;99477.00;5065029;28;20040;-78
2021/01/29 09:54:50;;;;;;;9.63;1.50;;;;;;;17.64;50.07;99487.41;5071830;28;20497;-80
2021/01/29 09:57:21;;;;;;;;;;;;;;;17.51;50.77;99502.75;5071532;28;20068;-72
2021/01/29 09:59:51;;;;;;;10.23;2.55;;;;;;;17.64;50.28;99496.50;5071197;28;20011;-75
2021/01/29 10:02:25;;;;;;;5.55;1.63;;;;;;;17.69;50.23;99496.13;5071379;28;20024;-75
2021/01/29 10:05:05;;;;;;;5.30;1.75;;;;;;;17.34;51.67;99516.13;5070273;28;20040;-84
2021/01/29 10:07:35;;;;;;;8.20;2.85;;;;;;;17.10;52.31;99519.56;5065025;28;20462;-74
2021/01/29 10:10:33;;;;;;;;;;;;;;;17.59;50.83;99532.78;5068167;28;20066;-81
2021/01/29 10:13:14;;;;;;;9.43;2.15;;;;;;;17.80;50.43;99534.06;5056738;28;20417;-75
2021/01/29 10:15:44;;;;;;;8.57;2.33;;;;;;;17.98;49.78;99532.13;5071698;28;20049;-75
2021/01/29 10:18:21;;;;;;;5.50;2.03;;;;;;;18.04;49.93;99541.59;5072060;28;20079;-75
2021/01/29 10:20:47;;;;;;;8.90;2.45;;;;;;;18.32;48.68;99546.38;5071774;28;20039;-75
2021/01/29 10:23:43;;;;;;;6.20;1.77;;;;;;;18.03;49.37;99551.88;5071871;28;20036;-75
2021/01/29 10:26:27;;;;;;;6.10;1.52;;;;;;;18.29;48.89;99561.00;5072246;28;20028;-75
2021/01/29 10:29:18;;;;;;;4.07;0.95;;;;;;;18.17;49.36;99559.41;5070802;28;20123;-75
2021/01/29 10:32:10;;;;;;;2.85;1.08;;;;;;;18.59;48.17;99580.00;5070212;28;20036;-75
2021/01/29 10:34:58;;;;;;;2.17;0.88;;;;;;;18.29;49.12;99578.41;5071645;28;20037;-75
2021/01/29 10:37:47;;;;;;;4.35;1.15;;;;;;;18.34;48.98;99590.22;5071624;28;20028;-75
2021/01/29 10:40:19;;;;;;;5.15;1.92;;;;;;;18.60;48.30;99589.09;5069555;28;20451;-75
2021/01/29 10:43:08;;;;;;;4.03;1.25;;;;;;;18.58;48.49;99600.53;5069691;28;20387;-75
2021/01/29 10:45:52;;;;;;;3.10;1.05;;;;;;;18.58;48.32;99606.84;5071008;28;20033;-74
2021/01/29 10:48:27;;;;;;;3.58;1.42;;;;;;;18.76;48.02;99617.97;5069452;28;20032;-74
2021/01/29 10:50:59;;;;;;;1.80;0.70;;;;;;;18.93;47.64;99621.13;5072090;28;20032;-75
2021/01/29 10:53:25;;;;;;;7.28;1.75;;;;;;;18.95;47.65;99618.75;5077874;28;20030;-75
2021/01/29 10:56:00;;;;;;;4.93;0.90;;;;;;;18.84;47.56;99636.16;5080610;28;20024;-73
2021/01/29 10:58:47;;;;;;;4.22;0.93;;;;;;;18.77;46.72;99630.63;5068312;28;20387;-73
2021/01/29 11:01:28;;;;;;;2.28;1.15;;;;;;;18.97;46.21;99636.56;5076269;28;20024;-77
2021/01/29 11:04:07;;;;;;;6.20;2.10;;;;;;;19.15;45.21;99642.06;5070505;28;20025;-72
2021/01/29 11:06:48;;;;;;;6.13;2.03;;;;;;;19.45;44.44;99663.78;5068708;28;20524;-72
2021/01/29 11:09:35;;;;;;;5.07;1.67;;;;;;;19.09;45.22;99663.03;5065230;28;20387;-76
2021/01/29 11:12:09;;;;;;;5.45;1.70;;;;;;;19.33;44.80;99669.72;5069886;28;20035;-71
2021/01/29 11:14:43;;;;;;;2.63;1.40;;;;;;;19.00;45.15;99677.28;5071304;28;20033;-74
2021/01/29 11:17:38;;;;;;;2.50;1.45;;;;;;;19.14;44.95;99690.31;5069698;28;20437;-71
2021/01/29 11:20:35;;;;;;;4.93;0.77;;;;;;;19.23;44.88;99695.47;5068431;28;20021;-76
2021/01/29 11:23:19;;;;;;;3.28;1.33;;;;;;;19.22;44.37;99711.28;5068872;28;20485;-71
2021/01/29 11:25:53;;;;;;;2.00;1.10;;;;;;;19.41;44.15;99724.72;5076860;28;20405;-72
2021/01/29 11:28:41;;;;;;;3.33;0.80;;;;;;;19.75;43.06;99734.59;5075874;28;20099;-71
2021/01/29 11:31:17;;;;;;;2.47;1.00;;;;;;;19.57;42.94;99737.38;5063492;28;20466;-71
2021/01/29 11:33:48;;;;;;;4.35;1.33;;;;;;;19.40;43.44;99734.22;5075213;28;20085;-71
2021/01/29 11:36:36;;;;;;;;;;;;;;;19.39;43.16;99751.25;5090595;28;20024;-74
2021/01/29 11:39:23;;;;;;;0.90;0.68;;;;;;;19.56;42.56;99752.41;5071755;28;19995;-71
2021/01/29 11:42:00;;;;;;;1.25;0.75;;;;;;;19.19;43.03;99761.91;5072266;28;20017;-73
2021/01/29 11:44:55;;;;;;;2.35;1.00;;;;;;;19.23;42.72;99762.72;5075231;28;20029;-71
2021/01/29 11:47:48;;;;;;;2.05;0.80;;;;;;;19.30;42.21;99765.50;5066380;28;20113;-71
2021/01/29 11:50:29;;;;;;;1.65;1.00;;;;;;;19.52;42.41;99779.34;5075496;28;20020;-71
2021/01/29 11:53:04;;;;;;;3.42;1.20;;;;;;;19.29;42.22;99797.16;5087978;28;20053;-71
2021/01/29 11:55:40;;;;;;;2.08;0.60;;;;;;;18.96;43.02;99787.19;5076047;28;20040;-71
2021/01/29 11:58:16;;;;;;;2.30;1.13;;;;;;;19.19;42.25;99799.88;5075222;28;20029;-71
2021/01/29 12:01:03;;;;;;;1.63;1.00;;;;;;;19.36;42.16;99811.00;5078331;28;20036;-77
2021/01/29 12:03:54;;;;;;;1.58;0.77;;;;;;;19.39;42.15;99809.41;5073054;28;20059;-77
2021/01/29 12:06:41;;;;;;;2.63;0.82;;;;;;;19.59;41.91;99812.63;5073939;28;20032;-76
2021/01/29 12:09:26;;;;;;;7.63;6.95;;;;;;;19.44;42.05;99811.78;5070630;28;20382;-70
2021/01/29 12:12:28;;;;;;;1.65;1.00;;;;;;;19.54;42.06;99816.53;5074231;28;20036;-70
2021/01/29 12:15:03;;;;;;;5.38;4.05;;;;;;;19.24;42.81;99824.44;5055223;28;20040;-70
2021/01/29 12:17:31;;;;;;;2.88;1.08;;;;;;;19.81;41.48;99832.81;5071844;28;20029;-69
2021/01/29 12:20:17;;;;;;;3.83;1.75;;;;;;;19.56;42.41;99838.31;5073949;28;20036;-70
2021/01/29 12:22:52;;;;;;;3.55;1.02;;;;;;;19.57;42.38;99831.59;5074601;28;20028;-70
2021/01/29 12:25:48;;;;;;;4.78;2.85;;;;;;;19.56;42.56;99821.69;5081344;28;20028;-72
2021/01/29 12:28:33;;;;;;;7.25;4.22;;;;;;;19.54;42.78;99840.69;5080890;28;20035;-70
2021/01/29 12:31:24;;;;;;;9.80;7.20;;;;;;;19.85;42.36;99842.69;5078088;28;20122;-70
2021/01/29 12:34:11;;;;;;;12.05;9.18;;;;;;;19.98;42.31;99833.97;5082112;28;20210;-75